sensor_id;sensor_type;location;lat;lon;timestamp;P1;durP1;ratioP1;P2;durP2;ratioP2
2686;SDS011;1353;51.386;7.028;2022-12-18T00:02:17;5.43;;;3.80;;
2686;SDS011;1353;51.386;7.028;2022-12-18T00:04:43;5.55;;;3.92;;
2686;SDS011;1353;51.386;7.028;2022-12-18T00:07:10;7.82;;;4.30;;
2686;SDS011;1353;51.386;7.028;2022-12-18T00:09:37;5.60;;;3.92;;
2686;SDS011;1353;51.386;7.028;2022-12-18T00:12:05;6.88;;;4.40;;
2686;SDS011;1353;51.386;7.028;2022-12-18T00:14:32;6.85;;;4.53;;
2686;SDS011;1353;51.386;7.028;2022-12-18T00:16:59;6.25;;;4.70;;
2686;SDS011;1353;51.386;7.028;2022-12-18T00:19:26;5.32;;;4.22;;
2686;SDS011;1353;51.386;7.028;2022-12-18T00:21:53;9.30;;;5.28;;
2686;SDS011;1353;51.386;7.028;2022-12-18T00:24:20;9.30;;;4.22;;
2686;SDS011;1353;51.386;7.028;2022-12-18T00:26:46;4.13;;;3.47;;
2686;SDS011;1353;51.386;7.028;2022-12-18T00:29:14;4.82;;;4.32;;
2686;SDS011;1353;51.386;7.028;2022-12-18T00:31:41;5.15;;;3.65;;
2686;SDS011;1353;51.386;7.028;2022-12-18T00:34:09;5.32;;;3.50;;
2686;SDS011;1353;51.386;7.028;2022-12-18T00:36:37;6.90;;;4.47;;
2686;SDS011;1353;51.386;7.028;2022-12-18T00:39:04;5.80;;;3.78;;
2686;SDS011;1353;51.386;7.028;2022-12-18T00:41:31;5.45;;;3.83;;
2686;SDS011;1353;51.386;7.028;2022-12-18T00:44:18;3.88;;;3.03;;
2686;SDS011;1353;51.386;7.028;2022-12-18T00:46:46;4.00;;;3.30;;
2686;SDS011;1353;51.386;7.028;2022-12-18T00:49:14;5.03;;;4.35;;
2686;SDS011;1353;51.386;7.028;2022-12-18T00:51:41;6.13;;;3.95;;
2686;SDS011;1353;51.386;7.028;2022-12-18T00:54:08;8.10;;;4.50;;
2686;SDS011;1353;51.386;7.028;2022-12-18T00:56:35;5.20;;;3.78;;
2686;SDS011;1353;51.386;7.028;2022-12-18T00:59:03;5.18;;;4.00;;
2686;SDS011;1353;51.386;7.028;2022-12-18T01:01:31;7.05;;;4.63;;
2686;SDS011;1353;51.386;7.028;2022-12-18T01:03:59;5.32;;;3.83;;
2686;SDS011;1353;51.386;7.028;2022-12-18T01:06:26;4.70;;;3.60;;
2686;SDS011;1353;51.386;7.028;2022-12-18T01:08:53;5.22;;;3.50;;
2686;SDS011;1353;51.386;7.028;2022-12-18T01:11:20;6.43;;;4.32;;
2686;SDS011;1353;51.386;7.028;2022-12-18T01:13:47;5.13;;;3.92;;
2686;SDS011;1353;51.386;7.028;2022-12-18T01:16:16;4.78;;;3.25;;
2686;SDS011;1353;51.386;7.028;2022-12-18T01:18:44;7.57;;;4.10;;
2686;SDS011;1353;51.386;7.028;2022-12-18T01:21:12;5.50;;;4.45;;
2686;SDS011;1353;51.386;7.028;2022-12-18T01:23:41;6.15;;;4.45;;
2686;SDS011;1353;51.386;7.028;2022-12-18T01:26:11;4.97;;;3.78;;
2686;SDS011;1353;51.386;7.028;2022-12-18T01:28:40;6.13;;;4.05;;
2686;SDS011;1353;51.386;7.028;2022-12-18T01:31:11;5.90;;;4.05;;
2686;SDS011;1353;51.386;7.028;2022-12-18T01:33:39;6.82;;;4.75;;
2686;SDS011;1353;51.386;7.028;2022-12-18T01:36:07;6.63;;;4.43;;
2686;SDS011;1353;51.386;7.028;2022-12-18T01:38:34;5.10;;;4.22;;
2686;SDS011;1353;51.386;7.028;2022-12-18T01:41:01;6.55;;;4.25;;
2686;SDS011;1353;51.386;7.028;2022-12-18T01:43:41;6.28;;;4.47;;
2686;SDS011;1353;51.386;7.028;2022-12-18T01:46:12;5.03;;;3.95;;
2686;SDS011;1353;51.386;7.028;2022-12-18T01:48:39;10.45;;;4.57;;
2686;SDS011;1353;51.386;7.028;2022-12-18T01:51:09;5.18;;;4.40;;
2686;SDS011;1353;51.386;7.028;2022-12-18T01:53:37;8.82;;;4.32;;
2686;SDS011;1353;51.386;7.028;2022-12-18T01:56:07;7.22;;;4.78;;
2686;SDS011;1353;51.386;7.028;2022-12-18T01:58:39;7.03;;;4.70;;
2686;SDS011;1353;51.386;7.028;2022-12-18T02:01:11;7.32;;;5.10;;
2686;SDS011;1353;51.386;7.028;2022-12-18T02:03:40;5.75;;;4.97;;
2686;SDS011;1353;51.386;7.028;2022-12-18T02:06:09;7.97;;;5.25;;
2686;SDS011;1353;51.386;7.028;2022-12-18T02:08:42;6.72;;;5.20;;
2686;SDS011;1353;51.386;7.028;2022-12-18T02:11:18;7.15;;;5.30;;
2686;SDS011;1353;51.386;7.028;2022-12-18T02:13:53;9.68;;;6.00;;
2686;SDS011;1353;51.386;7.028;2022-12-18T02:16:28;6.53;;;5.00;;
2686;SDS011;1353;51.386;7.028;2022-12-18T02:19:00;7.13;;;4.47;;
2686;SDS011;1353;51.386;7.028;2022-12-18T02:21:36;7.10;;;5.13;;
2686;SDS011;1353;51.386;7.028;2022-12-18T02:24:13;7.40;;;5.30;;
2686;SDS011;1353;51.386;7.028;2022-12-18T02:26:52;5.57;;;4.60;;
2686;SDS011;1353;51.386;7.028;2022-12-18T02:29:22;6.68;;;5.20;;
2686;SDS011;1353;51.386;7.028;2022-12-18T02:31:53;8.38;;;5.53;;
2686;SDS011;1353;51.386;7.028;2022-12-18T02:34:23;6.03;;;5.40;;
2686;SDS011;1353;51.386;7.028;2022-12-18T02:36:55;8.10;;;5.68;;
2686;SDS011;1353;51.386;7.028;2022-12-18T02:39:25;6.95;;;5.72;;
2686;SDS011;1353;51.386;7.028;2022-12-18T02:41:56;6.07;;;5.07;;
2686;SDS011;1353;51.386;7.028;2022-12-18T02:44:23;7.00;;;5.60;;
2686;SDS011;1353;51.386;7.028;2022-12-18T02:46:50;8.32;;;6.18;;
2686;SDS011;1353;51.386;7.028;2022-12-18T02:49:26;7.68;;;5.60;;
2686;SDS011;1353;51.386;7.028;2022-12-18T02:52:01;7.32;;;4.95;;
2686;SDS011;1353;51.386;7.028;2022-12-18T02:54:38;6.55;;;5.38;;
2686;SDS011;1353;51.386;7.028;2022-12-18T02:57:20;8.32;;;5.45;;
2686;SDS011;1353;51.386;7.028;2022-12-18T02:59:55;7.90;;;4.63;;
2686;SDS011;1353;51.386;7.028;2022-12-18T03:02:26;6.20;;;4.72;;
2686;SDS011;1353;51.386;7.028;2022-12-18T03:05:01;6.05;;;5.05;;
2686;SDS011;1353;51.386;7.028;2022-12-18T03:07:34;8.15;;;4.85;;
2686;SDS011;1353;51.386;7.028;2022-12-18T03:10:04;5.82;;;5.18;;
2686;SDS011;1353;51.386;7.028;2022-12-18T03:12:37;6.93;;;5.45;;
2686;SDS011;1353;51.386;7.028;2022-12-18T03:15:08;5.78;;;5.10;;
2686;SDS011;1353;51.386;7.028;2022-12-18T03:17:40;7.95;;;5.68;;
2686;SDS011;1353;51.386;7.028;2022-12-18T03:20:12;11.70;;;5.63;;
2686;SDS011;1353;51.386;7.028;2022-12-18T03:22:42;6.63;;;4.53;;
2686;SDS011;1353;51.386;7.028;2022-12-18T03:25:13;7.55;;;5.90;;
2686;SDS011;1353;51.386;7.028;2022-12-18T03:27:42;6.78;;;4.45;;
2686;SDS011;1353;51.386;7.028;2022-12-18T03:30:13;6.28;;;5.05;;
2686;SDS011;1353;51.386;7.028;2022-12-18T03:32:42;7.20;;;5.18;;
2686;SDS011;1353;51.386;7.028;2022-12-18T03:35:13;5.50;;;4.38;;
2686;SDS011;1353;51.386;7.028;2022-12-18T03:37:44;6.90;;;4.25;;
2686;SDS011;1353;51.386;7.028;2022-12-18T03:40:11;11.25;;;5.75;;
2686;SDS011;1353;51.386;7.028;2022-12-18T03:42:39;5.35;;;4.25;;
2686;SDS011;1353;51.386;7.028;2022-12-18T03:45:16;4.75;;;4.03;;
2686;SDS011;1353;51.386;7.028;2022-12-18T03:47:56;4.90;;;4.40;;
2686;SDS011;1353;51.386;7.028;2022-12-18T03:50:29;5.63;;;4.28;;
2686;SDS011;1353;51.386;7.028;2022-12-18T03:53:06;9.73;;;5.00;;
2686;SDS011;1353;51.386;7.028;2022-12-18T03:55:41;6.35;;;5.25;;
2686;SDS011;1353;51.386;7.028;2022-12-18T03:58:11;6.63;;;4.25;;
2686;SDS011;1353;51.386;7.028;2022-12-18T04:00:42;6.78;;;4.45;;
2686;SDS011;1353;51.386;7.028;2022-12-18T04:03:10;4.68;;;3.63;;
2686;SDS011;1353;51.386;7.028;2022-12-18T04:05:38;8.15;;;5.63;;
2686;SDS011;1353;51.386;7.028;2022-12-18T04:08:06;5.80;;;4.70;;
2686;SDS011;1353;51.386;7.028;2022-12-18T04:10:36;6.10;;;4.20;;
2686;SDS011;1353;51.386;7.028;2022-12-18T04:13:02;6.13;;;4.70;;
2686;SDS011;1353;51.386;7.028;2022-12-18T04:15:30;6.50;;;4.80;;
2686;SDS011;1353;51.386;7.028;2022-12-18T04:17:59;7.47;;;4.10;;
2686;SDS011;1353;51.386;7.028;2022-12-18T04:20:26;7.13;;;5.03;;
2686;SDS011;1353;51.386;7.028;2022-12-18T04:22:53;7.03;;;4.78;;
2686;SDS011;1353;51.386;7.028;2022-12-18T04:25:20;5.38;;;4.88;;
2686;SDS011;1353;51.386;7.028;2022-12-18T04:27:46;6.60;;;3.90;;
2686;SDS011;1353;51.386;7.028;2022-12-18T04:30:13;6.53;;;4.38;;
2686;SDS011;1353;51.386;7.028;2022-12-18T04:32:41;4.80;;;4.13;;
2686;SDS011;1353;51.386;7.028;2022-12-18T04:35:08;6.28;;;3.67;;
2686;SDS011;1353;51.386;7.028;2022-12-18T04:37:36;5.47;;;4.22;;
2686;SDS011;1353;51.386;7.028;2022-12-18T04:40:03;5.47;;;3.60;;
2686;SDS011;1353;51.386;7.028;2022-12-18T04:42:30;5.13;;;3.78;;
2686;SDS011;1353;51.386;7.028;2022-12-18T04:44:57;3.90;;;3.13;;
2686;SDS011;1353;51.386;7.028;2022-12-18T04:47:23;4.78;;;3.60;;
2686;SDS011;1353;51.386;7.028;2022-12-18T04:49:51;4.97;;;4.47;;
2686;SDS011;1353;51.386;7.028;2022-12-18T04:52:18;4.65;;;4.13;;
2686;SDS011;1353;51.386;7.028;2022-12-18T04:54:45;5.60;;;3.83;;
2686;SDS011;1353;51.386;7.028;2022-12-18T04:57:11;4.00;;;3.22;;
2686;SDS011;1353;51.386;7.028;2022-12-18T04:59:38;4.95;;;4.18;;
2686;SDS011;1353;51.386;7.028;2022-12-18T05:02:05;5.57;;;3.85;;
2686;SDS011;1353;51.386;7.028;2022-12-18T05:04:31;6.10;;;4.00;;
2686;SDS011;1353;51.386;7.028;2022-12-18T05:06:59;4.65;;;3.97;;
2686;SDS011;1353;51.386;7.028;2022-12-18T05:09:26;5.28;;;3.70;;
2686;SDS011;1353;51.386;7.028;2022-12-18T05:11:53;6.07;;;4.00;;
2686;SDS011;1353;51.386;7.028;2022-12-18T05:14:20;4.95;;;3.05;;
2686;SDS011;1353;51.386;7.028;2022-12-18T05:16:46;5.10;;;3.90;;
2686;SDS011;1353;51.386;7.028;2022-12-18T05:19:13;4.65;;;3.60;;
2686;SDS011;1353;51.386;7.028;2022-12-18T05:21:40;5.85;;;3.50;;
2686;SDS011;1353;51.386;7.028;2022-12-18T05:24:08;5.32;;;3.13;;
2686;SDS011;1353;51.386;7.028;2022-12-18T05:26:34;5.93;;;3.75;;
2686;SDS011;1353;51.386;7.028;2022-12-18T05:29:01;5.53;;;3.97;;
2686;SDS011;1353;51.386;7.028;2022-12-18T05:31:28;4.78;;;3.03;;
2686;SDS011;1353;51.386;7.028;2022-12-18T05:33:55;4.45;;;3.67;;
2686;SDS011;1353;51.386;7.028;2022-12-18T05:36:21;3.58;;;3.28;;
2686;SDS011;1353;51.386;7.028;2022-12-18T05:38:48;6.75;;;3.78;;
2686;SDS011;1353;51.386;7.028;2022-12-18T05:41:16;5.30;;;3.40;;
2686;SDS011;1353;51.386;7.028;2022-12-18T05:43:43;4.28;;;3.88;;
2686;SDS011;1353;51.386;7.028;2022-12-18T05:46:11;5.40;;;3.33;;
2686;SDS011;1353;51.386;7.028;2022-12-18T05:48:39;3.13;;;2.65;;
2686;SDS011;1353;51.386;7.028;2022-12-18T05:51:07;4.25;;;3.30;;
2686;SDS011;1353;51.386;7.028;2022-12-18T05:53:36;3.58;;;2.45;;
2686;SDS011;1353;51.386;7.028;2022-12-18T05:56:04;5.18;;;3.38;;
2686;SDS011;1353;51.386;7.028;2022-12-18T05:58:34;3.90;;;3.40;;
2686;SDS011;1353;51.386;7.028;2022-12-18T06:01:06;5.68;;;3.17;;
2686;SDS011;1353;51.386;7.028;2022-12-18T06:03:34;3.10;;;2.55;;
2686;SDS011;1353;51.386;7.028;2022-12-18T06:06:00;4.45;;;3.00;;
2686;SDS011;1353;51.386;7.028;2022-12-18T06:08:27;2.85;;;2.30;;
2686;SDS011;1353;51.386;7.028;2022-12-18T06:10:54;4.55;;;2.75;;
2686;SDS011;1353;51.386;7.028;2022-12-18T06:13:21;2.97;;;2.47;;
2686;SDS011;1353;51.386;7.028;2022-12-18T06:15:49;3.00;;;2.40;;
2686;SDS011;1353;51.386;7.028;2022-12-18T06:18:16;3.55;;;2.63;;
2686;SDS011;1353;51.386;7.028;2022-12-18T06:20:43;3.35;;;2.70;;
2686;SDS011;1353;51.386;7.028;2022-12-18T06:23:10;3.28;;;2.55;;
2686;SDS011;1353;51.386;7.028;2022-12-18T06:25:37;2.78;;;2.25;;
2686;SDS011;1353;51.386;7.028;2022-12-18T06:28:05;4.35;;;2.95;;
2686;SDS011;1353;51.386;7.028;2022-12-18T06:30:31;2.40;;;2.20;;
2686;SDS011;1353;51.386;7.028;2022-12-18T06:32:59;3.33;;;2.08;;
2686;SDS011;1353;51.386;7.028;2022-12-18T06:35:26;4.80;;;2.35;;
2686;SDS011;1353;51.386;7.028;2022-12-18T06:37:53;4.15;;;2.75;;
2686;SDS011;1353;51.386;7.028;2022-12-18T06:40:20;2.42;;;2.22;;
2686;SDS011;1353;51.386;7.028;2022-12-18T06:42:47;3.08;;;2.55;;
2686;SDS011;1353;51.386;7.028;2022-12-18T06:45:13;4.10;;;2.75;;
2686;SDS011;1353;51.386;7.028;2022-12-18T06:47:41;3.38;;;3.00;;
2686;SDS011;1353;51.386;7.028;2022-12-18T06:50:09;5.75;;;2.90;;
2686;SDS011;1353;51.386;7.028;2022-12-18T06:52:36;2.60;;;2.40;;
2686;SDS011;1353;51.386;7.028;2022-12-18T06:55:04;3.20;;;2.17;;
2686;SDS011;1353;51.386;7.028;2022-12-18T06:57:32;4.30;;;2.88;;
2686;SDS011;1353;51.386;7.028;2022-12-18T06:59:58;2.65;;;2.33;;
2686;SDS011;1353;51.386;7.028;2022-12-18T07:02:25;4.07;;;2.50;;
2686;SDS011;1353;51.386;7.028;2022-12-18T07:04:52;6.18;;;3.05;;
2686;SDS011;1353;51.386;7.028;2022-12-18T07:07:20;3.67;;;2.80;;
2686;SDS011;1353;51.386;7.028;2022-12-18T07:09:47;4.82;;;2.85;;
2686;SDS011;1353;51.386;7.028;2022-12-18T07:12:15;4.38;;;3.15;;
2686;SDS011;1353;51.386;7.028;2022-12-18T07:14:41;4.80;;;3.00;;
2686;SDS011;1353;51.386;7.028;2022-12-18T07:17:08;4.15;;;3.00;;
2686;SDS011;1353;51.386;7.028;2022-12-18T07:19:35;3.38;;;3.08;;
2686;SDS011;1353;51.386;7.028;2022-12-18T07:22:01;4.15;;;3.00;;
2686;SDS011;1353;51.386;7.028;2022-12-18T07:24:29;5.25;;;3.25;;
2686;SDS011;1353;51.386;7.028;2022-12-18T07:26:58;4.40;;;3.40;;
2686;SDS011;1353;51.386;7.028;2022-12-18T07:29:24;5.03;;;3.47;;
2686;SDS011;1353;51.386;7.028;2022-12-18T07:31:51;3.83;;;3.00;;
2686;SDS011;1353;51.386;7.028;2022-12-18T07:34:18;4.60;;;3.58;;
2686;SDS011;1353;51.386;7.028;2022-12-18T07:36:45;3.50;;;2.78;;
2686;SDS011;1353;51.386;7.028;2022-12-18T07:39:11;4.63;;;3.60;;
2686;SDS011;1353;51.386;7.028;2022-12-18T07:41:39;4.97;;;2.78;;
2686;SDS011;1353;51.386;7.028;2022-12-18T07:44:10;4.78;;;3.40;;
2686;SDS011;1353;51.386;7.028;2022-12-18T07:46:45;3.90;;;3.50;;
2686;SDS011;1353;51.386;7.028;2022-12-18T07:49:11;3.95;;;3.20;;
2686;SDS011;1353;51.386;7.028;2022-12-18T07:51:38;3.50;;;2.90;;
2686;SDS011;1353;51.386;7.028;2022-12-18T07:54:05;3.70;;;2.83;;
2686;SDS011;1353;51.386;7.028;2022-12-18T07:56:31;3.00;;;2.75;;
2686;SDS011;1353;51.386;7.028;2022-12-18T07:58:59;3.30;;;2.88;;
2686;SDS011;1353;51.386;7.028;2022-12-18T08:01:26;3.17;;;2.90;;
2686;SDS011;1353;51.386;7.028;2022-12-18T08:03:53;2.70;;;2.33;;
2686;SDS011;1353;51.386;7.028;2022-12-18T08:06:20;3.65;;;2.90;;
2686;SDS011;1353;51.386;7.028;2022-12-18T08:08:47;3.08;;;2.78;;
2686;SDS011;1353;51.386;7.028;2022-12-18T08:11:13;4.60;;;2.90;;
2686;SDS011;1353;51.386;7.028;2022-12-18T08:13:40;4.60;;;3.38;;
2686;SDS011;1353;51.386;7.028;2022-12-18T08:16:08;5.05;;;2.90;;
2686;SDS011;1353;51.386;7.028;2022-12-18T08:18:35;4.65;;;3.60;;
2686;SDS011;1353;51.386;7.028;2022-12-18T08:21:09;4.20;;;3.20;;
2686;SDS011;1353;51.386;7.028;2022-12-18T08:23:36;5.25;;;3.08;;
2686;SDS011;1353;51.386;7.028;2022-12-18T08:26:03;5.78;;;4.80;;
2686;SDS011;1353;51.386;7.028;2022-12-18T08:28:30;4.68;;;3.47;;
2686;SDS011;1353;51.386;7.028;2022-12-18T08:30:57;3.80;;;3.42;;
2686;SDS011;1353;51.386;7.028;2022-12-18T08:33:25;4.57;;;3.45;;
2686;SDS011;1353;51.386;7.028;2022-12-18T08:35:52;4.10;;;3.33;;
2686;SDS011;1353;51.386;7.028;2022-12-18T08:38:19;4.60;;;3.35;;
2686;SDS011;1353;51.386;7.028;2022-12-18T08:40:47;4.65;;;3.05;;
2686;SDS011;1353;51.386;7.028;2022-12-18T08:43:14;5.07;;;3.40;;
2686;SDS011;1353;51.386;7.028;2022-12-18T08:45:58;5.07;;;3.70;;
2686;SDS011;1353;51.386;7.028;2022-12-18T08:48:26;5.15;;;4.03;;
2686;SDS011;1353;51.386;7.028;2022-12-18T08:50:54;5.55;;;4.05;;
2686;SDS011;1353;51.386;7.028;2022-12-18T08:53:21;5.03;;;3.55;;
2686;SDS011;1353;51.386;7.028;2022-12-18T08:55:48;5.70;;;3.75;;
2686;SDS011;1353;51.386;7.028;2022-12-18T08:58:14;4.80;;;3.78;;
2686;SDS011;1353;51.386;7.028;2022-12-18T09:00:41;6.50;;;3.40;;
2686;SDS011;1353;51.386;7.028;2022-12-18T09:03:10;6.68;;;4.03;;
2686;SDS011;1353;51.386;7.028;2022-12-18T09:05:39;4.20;;;3.72;;
2686;SDS011;1353;51.386;7.028;2022-12-18T09:08:06;5.00;;;3.80;;
2686;SDS011;1353;51.386;7.028;2022-12-18T09:10:32;4.35;;;2.88;;
2686;SDS011;1353;51.386;7.028;2022-12-18T09:13:00;4.43;;;3.25;;
2686;SDS011;1353;51.386;7.028;2022-12-18T09:15:26;3.65;;;2.88;;
2686;SDS011;1353;51.386;7.028;2022-12-18T09:17:53;4.47;;;3.15;;
2686;SDS011;1353;51.386;7.028;2022-12-18T09:20:20;3.50;;;3.30;;
2686;SDS011;1353;51.386;7.028;2022-12-18T09:22:48;5.15;;;3.40;;
2686;SDS011;1353;51.386;7.028;2022-12-18T09:25:14;3.42;;;2.95;;
2686;SDS011;1353;51.386;7.028;2022-12-18T09:27:41;3.10;;;2.80;;
2686;SDS011;1353;51.386;7.028;2022-12-18T09:30:08;4.63;;;3.15;;
2686;SDS011;1353;51.386;7.028;2022-12-18T09:32:36;4.40;;;2.95;;
2686;SDS011;1353;51.386;7.028;2022-12-18T09:35:03;3.75;;;2.40;;
2686;SDS011;1353;51.386;7.028;2022-12-18T09:37:30;4.55;;;3.05;;
2686;SDS011;1353;51.386;7.028;2022-12-18T09:39:58;3.55;;;2.65;;
2686;SDS011;1353;51.386;7.028;2022-12-18T09:42:25;3.67;;;2.78;;
2686;SDS011;1353;51.386;7.028;2022-12-18T09:44:52;3.90;;;2.75;;
2686;SDS011;1353;51.386;7.028;2022-12-18T09:47:21;3.97;;;2.50;;
2686;SDS011;1353;51.386;7.028;2022-12-18T09:49:51;3.45;;;2.20;;
2686;SDS011;1353;51.386;7.028;2022-12-18T09:52:21;3.92;;;2.65;;
2686;SDS011;1353;51.386;7.028;2022-12-18T09:55:05;3.72;;;2.45;;
2686;SDS011;1353;51.386;7.028;2022-12-18T09:57:39;3.78;;;2.88;;
2686;SDS011;1353;51.386;7.028;2022-12-18T10:00:15;2.88;;;2.58;;
2686;SDS011;1353;51.386;7.028;2022-12-18T10:02:44;3.15;;;2.85;;
2686;SDS011;1353;51.386;7.028;2022-12-18T10:05:12;3.30;;;2.38;;
2686;SDS011;1353;51.386;7.028;2022-12-18T10:07:53;4.03;;;2.80;;
2686;SDS011;1353;51.386;7.028;2022-12-18T10:10:32;4.55;;;3.17;;
2686;SDS011;1353;51.386;7.028;2022-12-18T10:13:09;4.10;;;2.70;;
2686;SDS011;1353;51.386;7.028;2022-12-18T10:15:47;4.05;;;2.55;;
2686;SDS011;1353;51.386;7.028;2022-12-18T10:18:29;3.60;;;2.60;;
2686;SDS011;1353;51.386;7.028;2022-12-18T10:21:07;4.30;;;3.40;;
2686;SDS011;1353;51.386;7.028;2022-12-18T10:23:39;4.25;;;2.97;;
2686;SDS011;1353;51.386;7.028;2022-12-18T10:26:14;4.75;;;3.47;;
2686;SDS011;1353;51.386;7.028;2022-12-18T10:28:41;3.33;;;2.50;;
2686;SDS011;1353;51.386;7.028;2022-12-18T10:31:12;4.13;;;3.72;;
2686;SDS011;1353;51.386;7.028;2022-12-18T10:33:43;5.00;;;3.13;;
2686;SDS011;1353;51.386;7.028;2022-12-18T10:36:10;6.30;;;2.92;;
2686;SDS011;1353;51.386;7.028;2022-12-18T10:38:36;4.80;;;3.67;;
2686;SDS011;1353;51.386;7.028;2022-12-18T10:41:04;3.55;;;3.25;;
2686;SDS011;1353;51.386;7.028;2022-12-18T10:43:36;4.85;;;3.08;;
2686;SDS011;1353;51.386;7.028;2022-12-18T10:46:05;4.30;;;3.67;;
2686;SDS011;1353;51.386;7.028;2022-12-18T10:48:41;4.13;;;3.25;;
2686;SDS011;1353;51.386;7.028;2022-12-18T10:51:21;3.08;;;2.88;;
2686;SDS011;1353;51.386;7.028;2022-12-18T10:53:51;5.25;;;3.38;;
2686;SDS011;1353;51.386;7.028;2022-12-18T10:56:21;4.90;;;3.30;;
2686;SDS011;1353;51.386;7.028;2022-12-18T10:58:56;5.10;;;3.58;;
2686;SDS011;1353;51.386;7.028;2022-12-18T11:01:24;3.40;;;3.08;;
2686;SDS011;1353;51.386;7.028;2022-12-18T11:03:59;3.55;;;3.25;;
2686;SDS011;1353;51.386;7.028;2022-12-18T11:06:27;3.70;;;3.20;;
2686;SDS011;1353;51.386;7.028;2022-12-18T11:08:57;4.65;;;3.88;;
2686;SDS011;1353;51.386;7.028;2022-12-18T11:11:25;3.70;;;3.40;;
2686;SDS011;1353;51.386;7.028;2022-12-18T11:13:59;5.63;;;3.65;;
2686;SDS011;1353;51.386;7.028;2022-12-18T11:16:29;5.13;;;3.88;;
2686;SDS011;1353;51.386;7.028;2022-12-18T11:19:13;4.43;;;3.13;;
2686;SDS011;1353;51.386;7.028;2022-12-18T11:21:49;5.78;;;3.70;;
2686;SDS011;1353;51.386;7.028;2022-12-18T11:24:19;4.88;;;3.40;;
2686;SDS011;1353;51.386;7.028;2022-12-18T11:26:48;4.63;;;3.55;;
2686;SDS011;1353;51.386;7.028;2022-12-18T11:29:17;8.50;;;5.32;;
2686;SDS011;1353;51.386;7.028;2022-12-18T11:31:49;4.15;;;3.42;;
2686;SDS011;1353;51.386;7.028;2022-12-18T11:34:16;4.72;;;3.97;;
2686;SDS011;1353;51.386;7.028;2022-12-18T11:36:50;5.35;;;3.85;;
2686;SDS011;1353;51.386;7.028;2022-12-18T11:39:18;5.35;;;3.42;;
2686;SDS011;1353;51.386;7.028;2022-12-18T11:41:52;3.35;;;3.05;;
2686;SDS011;1353;51.386;7.028;2022-12-18T11:44:40;4.85;;;3.40;;
2686;SDS011;1353;51.386;7.028;2022-12-18T11:47:13;7.07;;;4.80;;
2686;SDS011;1353;51.386;7.028;2022-12-18T11:49:46;6.57;;;4.57;;
2686;SDS011;1353;51.386;7.028;2022-12-18T11:52:16;5.95;;;4.70;;
2686;SDS011;1353;51.386;7.028;2022-12-18T11:55:05;4.78;;;4.03;;
2686;SDS011;1353;51.386;7.028;2022-12-18T11:57:39;7.15;;;4.85;;
2686;SDS011;1353;51.386;7.028;2022-12-18T12:00:15;7.30;;;4.53;;
2686;SDS011;1353;51.386;7.028;2022-12-18T12:02:52;5.13;;;4.15;;
2686;SDS011;1353;51.386;7.028;2022-12-18T12:05:36;7.18;;;4.43;;
2686;SDS011;1353;51.386;7.028;2022-12-18T12:08:12;6.05;;;3.92;;
2686;SDS011;1353;51.386;7.028;2022-12-18T12:10:51;7.05;;;4.75;;
2686;SDS011;1353;51.386;7.028;2022-12-18T12:13:32;7.40;;;3.72;;
2686;SDS011;1353;51.386;7.028;2022-12-18T12:16:11;7.22;;;4.55;;
2686;SDS011;1353;51.386;7.028;2022-12-18T12:18:51;6.00;;;4.63;;
2686;SDS011;1353;51.386;7.028;2022-12-18T12:21:28;5.53;;;3.95;;
2686;SDS011;1353;51.386;7.028;2022-12-18T12:24:04;6.22;;;4.40;;
2686;SDS011;1353;51.386;7.028;2022-12-18T12:26:43;7.82;;;5.30;;
2686;SDS011;1353;51.386;7.028;2022-12-18T12:29:22;6.07;;;4.72;;
2686;SDS011;1353;51.386;7.028;2022-12-18T12:32:00;8.32;;;4.97;;
2686;SDS011;1353;51.386;7.028;2022-12-18T12:34:37;6.65;;;4.70;;
2686;SDS011;1353;51.386;7.028;2022-12-18T12:37:18;5.70;;;5.10;;
2686;SDS011;1353;51.386;7.028;2022-12-18T12:39:51;8.70;;;4.80;;
2686;SDS011;1353;51.386;7.028;2022-12-18T12:42:23;7.22;;;5.18;;
2686;SDS011;1353;51.386;7.028;2022-12-18T12:45:21;5.55;;;5.05;;
2686;SDS011;1353;51.386;7.028;2022-12-18T12:47:53;8.52;;;4.45;;
2686;SDS011;1353;51.386;7.028;2022-12-18T12:50:22;7.90;;;5.75;;
2686;SDS011;1353;51.386;7.028;2022-12-18T12:52:50;10.65;;;5.32;;
2686;SDS011;1353;51.386;7.028;2022-12-18T12:55:20;7.90;;;5.00;;
2686;SDS011;1353;51.386;7.028;2022-12-18T12:57:51;5.97;;;4.97;;
2686;SDS011;1353;51.386;7.028;2022-12-18T13:00:25;8.13;;;5.82;;
2686;SDS011;1353;51.386;7.028;2022-12-18T13:03:03;8.93;;;6.50;;
2686;SDS011;1353;51.386;7.028;2022-12-18T13:05:39;8.50;;;5.80;;
2686;SDS011;1353;51.386;7.028;2022-12-18T13:08:11;9.77;;;5.75;;
2686;SDS011;1353;51.386;7.028;2022-12-18T13:10:48;14.63;;;6.38;;
2686;SDS011;1353;51.386;7.028;2022-12-18T13:13:37;10.00;;;5.95;;
2686;SDS011;1353;51.386;7.028;2022-12-18T13:16:13;11.18;;;6.78;;
2686;SDS011;1353;51.386;7.028;2022-12-18T13:18:49;10.60;;;6.15;;
2686;SDS011;1353;51.386;7.028;2022-12-18T13:21:20;11.88;;;6.82;;
2686;SDS011;1353;51.386;7.028;2022-12-18T13:23:49;9.15;;;6.30;;
2686;SDS011;1353;51.386;7.028;2022-12-18T13:29:07;12.50;;;7.20;;
2686;SDS011;1353;51.386;7.028;2022-12-18T13:34:48;11.18;;;8.05;;
2686;SDS011;1353;51.386;7.028;2022-12-18T13:37:42;11.10;;;7.00;;
2686;SDS011;1353;51.386;7.028;2022-12-18T13:43:22;15.38;;;7.72;;
2686;SDS011;1353;51.386;7.028;2022-12-18T13:45:59;10.82;;;7.85;;
2686;SDS011;1353;51.386;7.028;2022-12-18T13:48:28;10.00;;;7.40;;
2686;SDS011;1353;51.386;7.028;2022-12-18T13:51:00;10.00;;;7.57;;
2686;SDS011;1353;51.386;7.028;2022-12-18T13:53:30;10.20;;;7.93;;
2686;SDS011;1353;51.386;7.028;2022-12-18T13:56:00;11.25;;;8.10;;
2686;SDS011;1353;51.386;7.028;2022-12-18T13:58:27;13.02;;;7.90;;
2686;SDS011;1353;51.386;7.028;2022-12-18T14:00:54;11.95;;;8.63;;
2686;SDS011;1353;51.386;7.028;2022-12-18T14:03:22;10.40;;;7.00;;
2686;SDS011;1353;51.386;7.028;2022-12-18T14:05:52;13.50;;;8.80;;
2686;SDS011;1353;51.386;7.028;2022-12-18T14:08:23;10.23;;;7.93;;
2686;SDS011;1353;51.386;7.028;2022-12-18T14:10:53;13.48;;;9.88;;
2686;SDS011;1353;51.386;7.028;2022-12-18T14:13:22;12.35;;;8.77;;
2686;SDS011;1353;51.386;7.028;2022-12-18T14:15:52;15.00;;;10.07;;
2686;SDS011;1353;51.386;7.028;2022-12-18T14:18:20;11.75;;;8.90;;
2686;SDS011;1353;51.386;7.028;2022-12-18T14:20:50;13.30;;;9.82;;
2686;SDS011;1353;51.386;7.028;2022-12-18T14:23:29;14.43;;;9.23;;
2686;SDS011;1353;51.386;7.028;2022-12-18T14:25:59;11.70;;;9.32;;
2686;SDS011;1353;51.386;7.028;2022-12-18T14:28:26;14.15;;;9.38;;
2686;SDS011;1353;51.386;7.028;2022-12-18T14:30:53;13.27;;;7.93;;
2686;SDS011;1353;51.386;7.028;2022-12-18T14:33:21;15.98;;;10.43;;
2686;SDS011;1353;51.386;7.028;2022-12-18T14:35:54;14.52;;;9.27;;
2686;SDS011;1353;51.386;7.028;2022-12-18T14:38:25;16.00;;;9.45;;
2686;SDS011;1353;51.386;7.028;2022-12-18T14:41:03;13.80;;;8.15;;
2686;SDS011;1353;51.386;7.028;2022-12-18T14:43:32;15.10;;;9.52;;
2686;SDS011;1353;51.386;7.028;2022-12-18T14:46:00;17.88;;;9.10;;
2686;SDS011;1353;51.386;7.028;2022-12-18T14:48:35;13.52;;;9.40;;
2686;SDS011;1353;51.386;7.028;2022-12-18T14:51:04;12.65;;;9.85;;
2686;SDS011;1353;51.386;7.028;2022-12-18T14:53:33;11.77;;;9.48;;
2686;SDS011;1353;51.386;7.028;2022-12-18T14:56:12;15.43;;;10.52;;
2686;SDS011;1353;51.386;7.028;2022-12-18T14:58:44;11.98;;;8.38;;
2686;SDS011;1353;51.386;7.028;2022-12-18T15:01:17;14.90;;;10.15;;
2686;SDS011;1353;51.386;7.028;2022-12-18T15:03:45;14.40;;;11.57;;
2686;SDS011;1353;51.386;7.028;2022-12-18T15:06:16;13.60;;;9.18;;
2686;SDS011;1353;51.386;7.028;2022-12-18T15:08:44;14.77;;;10.85;;
2686;SDS011;1353;51.386;7.028;2022-12-18T15:16:52;14.77;;;8.90;;
2686;SDS011;1353;51.386;7.028;2022-12-18T15:19:20;15.95;;;10.00;;
2686;SDS011;1353;51.386;7.028;2022-12-18T15:21:48;16.23;;;11.40;;
2686;SDS011;1353;51.386;7.028;2022-12-18T15:24:26;15.15;;;10.52;;
2686;SDS011;1353;51.386;7.028;2022-12-18T15:26:57;14.90;;;12.07;;
2686;SDS011;1353;51.386;7.028;2022-12-18T15:29:24;15.60;;;9.88;;
2686;SDS011;1353;51.386;7.028;2022-12-18T15:32:01;18.70;;;12.45;;
2686;SDS011;1353;51.386;7.028;2022-12-18T15:34:29;17.27;;;12.32;;
2686;SDS011;1353;51.386;7.028;2022-12-18T15:36:57;15.98;;;11.13;;
2686;SDS011;1353;51.386;7.028;2022-12-18T15:39:24;16.13;;;10.93;;
2686;SDS011;1353;51.386;7.028;2022-12-18T15:41:50;15.90;;;10.95;;
2686;SDS011;1353;51.386;7.028;2022-12-18T15:44:36;17.05;;;11.75;;
2686;SDS011;1353;51.386;7.028;2022-12-18T15:47:04;14.65;;;10.32;;